Time;durP1;ratioP1;P1;durP2;ratioP2;P2;SDS_P1;SDS_P2;PMS_P1;PMS_P2;Temp;Humidity;BMP_temperature;BMP_pressure;BME280_temperature;BME280_humidity;BME280_pressure;Samples;Min_cycle;Max_cycle;Signal;HPM_P1;HPM_P2
2022/05/22 00:02:19;;;;;;;3.78;2.58;;;;;;;14.23;27.39;98192.66;5012880;28;20046;-67
2022/05/22 00:04:45;;;;;;;5.07;2.00;;;;;;;14.15;27.79;98181.38;5013583;28;20096;-67
2022/05/22 00:07:11;;;;;;;4.07;1.98;;;;;;;14.14;27.69;98188.59;5012268;28;20112;-68
2022/05/22 00:09:37;;;;;;;5.78;2.53;;;;;;;14.26;27.67;98183.41;5013709;28;20097;-67
2022/05/22 00:12:04;;;;;;;4.25;2.13;;;;;;;14.23;27.79;98183.81;5013350;28;20518;-68
2022/05/22 00:14:31;;;;;;;6.15;2.30;;;;;;;14.02;28.10;98179.66;5011840;28;20050;-68
2022/05/22 00:16:59;;;;;;;8.00;2.30;;;;;;;14.04;28.19;98187.44;5011827;28;20045;-68
2022/05/22 00:19:27;;;;;;;5.38;2.20;;;;;;;13.98;28.17;98153.56;5013269;28;20096;-68
2022/05/22 00:21:53;;;;;;;8.00;2.22;;;;;;;13.92;28.59;98183.78;5028346;28;20136;-68
2022/05/22 00:24:24;;;;;;;4.85;2.08;;;;;;;14.00;28.30;98172.88;4996444;28;20048;-67
2022/05/22 00:26:50;;;;;;;5.88;2.25;;;;;;;13.88;28.52;98178.09;5012292;28;20065;-67
2022/05/22 00:29:17;;;;;;;6.18;2.20;;;;;;;13.86;28.82;98173.97;4995437;28;20052;-67
2022/05/22 00:31:43;;;;;;;6.65;2.40;;;;;;;13.84;28.85;98176.06;5028098;28;20856;-68
2022/05/22 00:34:09;;;;;;;5.25;1.75;;;;;;;13.79;28.71;98171.38;5011653;28;20137;-67
2022/05/22 00:36:35;;;;;;;8.38;2.28;;;;;;;13.63;28.78;98169.19;5011406;28;20653;-68
2022/05/22 00:39:01;;;;;;;7.97;2.10;;;;;;;13.62;28.89;98161.41;5011329;28;20156;-67
2022/05/22 00:41:28;;;;;;;4.85;2.63;;;;;;;13.74;28.64;98178.38;5011482;28;20041;-68
2022/05/22 00:43:56;;;;;;;6.35;2.15;;;;;;;13.81;28.75;98171.94;5011454;28;20048;-67
2022/05/22 00:46:23;;;;;;;4.65;1.90;;;;;;;13.83;28.61;98175.25;5012624;28;20041;-67
2022/05/22 00:48:53;;;;;;;3.10;2.05;;;;;;;13.94;28.54;98176.41;5011759;28;20129;-68
2022/05/22 00:51:21;;;;;;;4.07;1.80;;;;;;;13.91;28.76;98169.66;5027649;28;20077;-68
2022/05/22 00:53:57;;;;;;;2.88;2.00;;;;;;;13.84;28.52;98144.84;4994888;28;20061;-67
2022/05/22 00:56:34;;;;;;;3.35;2.00;;;;;;;13.92;28.79;98154.44;5012521;28;20069;-68
2022/05/22 00:59:01;;;;;;;5.50;1.80;;;;;;;13.71;28.59;98155.59;5010961;28;20041;-68
2022/05/22 01:01:27;;;;;;;3.08;2.05;;;;;;;13.71;28.62;98146.78;5027395;28;20119;-67
2022/05/22 01:03:55;;;;;;;7.85;2.00;;;;;;;13.77;28.71;98153.91;4994831;28;20407;-68
2022/05/22 01:06:24;;;;;;;3.63;1.80;;;;;;;13.62;28.76;98158.72;5010999;28;20532;-68
2022/05/22 01:08:52;;;;;;;3.67;1.70;;;;;;;13.56;28.72;98131.88;5010809;28;20462;-68
2022/05/22 01:11:24;;;;;;;5.55;1.95;;;;;;;13.94;28.49;98157.72;5012117;28;20084;-68
2022/05/22 01:13:55;;;;;;;7.93;2.55;;;;;;;13.79;28.88;98151.88;5011109;28;20038;-68
2022/05/22 01:16:22;;;;;;;5.10;2.20;;;;;;;13.65;28.55;98152.97;4995098;28;20045;-68
2022/05/22 01:18:53;;;;;;;7.72;2.33;;;;;;;13.76;28.61;98141.63;5027179;28;20081;-69
2022/05/22 01:21:23;;;;;;;3.38;1.95;;;;;;;13.78;28.81;98145.69;5011266;28;20041;-68
2022/05/22 01:23:50;;;;;;;5.03;1.77;;;;;;;13.65;28.50;98139.63;4995050;28;20458;-68
2022/05/22 01:26:27;;;;;;;7.15;2.08;;;;;;;13.74;28.64;98133.00;5011109;28;20153;-68
2022/05/22 01:29:05;;;;;;;;;;;;;;;13.90;28.48;98132.50;5011229;28;20072;-68
2022/05/22 01:31:33;;;;;;;4.35;2.10;;;;;;;13.45;28.86;98139.75;4978641;28;20361;-68
2022/05/22 01:34:03;;;;;;;2.95;1.92;;;;;;;13.22;28.89;98099.44;5010572;28;20047;-68
2022/05/22 01:36:31;;;;;;;9.68;2.03;;;;;;;13.41;28.73;98136.66;5010532;28;20048;-67
2022/05/22 01:38:58;;;;;;;2.75;1.85;;;;;;;13.44;29.03;98120.25;5010579;28;20112;-67
2022/05/22 01:41:31;;;;;;;2.72;1.60;;;;;;;13.22;28.79;98107.44;5010223;28;20376;-67
2022/05/22 01:43:56;;;;;;;3.20;2.05;;;;;;;13.39;28.88;98136.06;5010641;28;20069;-67
2022/05/22 01:46:22;;;;;;;4.68;2.10;;;;;;;13.32;28.88;98127.28;5010442;28;20053;-67
2022/05/22 01:49:02;;;;;;;2.72;1.70;;;;;;;13.29;28.75;98125.03;4995604;28;20092;-67
2022/05/22 01:51:35;;;;;;;10.75;2.10;;;;;;;13.60;28.81;98137.59;5010212;28;20154;-67
2022/05/22 01:54:03;;;;;;;9.23;2.15;;;;;;;13.28;28.80;98128.72;5010410;28;20443;-67
2022/05/22 01:56:32;;;;;;;4.82;2.10;;;;;;;13.29;28.82;98110.88;4994439;28;20065;-67
2022/05/22 01:58:59;;;;;;;7.70;2.10;;;;;;;13.29;28.63;98125.03;5009993;28;20073;-67
2022/05/22 02:01:32;;;;;;;3.78;2.28;;;;;;;13.31;28.54;98130.97;4979430;28;20042;-68
2022/05/22 02:04:03;;;;;;;3.67;2.10;;;;;;;13.41;28.70;98131.34;4994260;28;20081;-68
2022/05/22 02:06:32;;;;;;;5.80;2.13;;;;;;;13.28;28.83;98134.03;5009672;28;20050;-68
2022/05/22 02:09:07;;;;;;;4.07;1.95;;;;;;;13.28;28.88;98123.38;4980415;28;20042;-68
2022/05/22 02:11:38;;;;;;;3.35;2.05;;;;;;;13.38;28.73;98126.44;4979007;28;20100;-68
2022/05/22 02:14:05;;;;;;;6.07;1.80;;;;;;;13.35;28.88;98129.50;4977625;28;20053;-68
2022/05/22 02:16:30;;;;;;;3.33;1.98;;;;;;;13.30;28.83;98128.50;4993477;28;20041;-69
2022/05/22 02:18:56;;;;;;;6.25;1.70;;;;;;;13.33;28.77;98125.44;5012010;28;20127;-68
2022/05/22 02:21:24;;;;;;;7.28;2.22;;;;;;;13.19;28.76;98108.66;4993471;28;20042;-68
2022/05/22 02:23:50;;;;;;;5.88;2.15;;;;;;;13.08;28.93;98082.69;5011686;28;20062;-68
2022/05/22 02:26:16;;;;;;;6.13;2.42;;;;;;;13.39;28.57;98113.91;4993547;28;20454;-68
2022/05/22 02:28:44;;;;;;;6.95;2.60;;;;;;;13.48;28.63;98117.97;4994088;28;20034;-69
2022/05/22 02:31:10;;;;;;;4.95;2.42;;;;;;;13.47;28.66;98106.47;5009841;28;20038;-69
2022/05/22 02:33:38;;;;;;;7.65;2.47;;;;;;;13.43;28.63;98115.94;4993289;28;20523;-67
2022/05/22 02:36:10;;;;;;;7.13;2.60;;;;;;;13.51;28.59;98110.34;5009599;28;20079;-68
2022/05/22 02:38:37;;;;;;;6.15;2.50;;;;;;;13.38;28.85;98115.75;5009382;28;20041;-68
2022/05/22 02:41:11;;;;;;;5.13;2.28;;;;;;;13.52;28.84;98087.16;4993394;28;20069;-68
2022/05/22 02:43:39;;;;;;;6.53;2.50;;;;;;;13.46;28.94;98112.84;5009374;28;20062;-70
2022/05/22 02:46:14;;;;;;;5.28;2.58;;;;;;;13.80;28.84;98119.63;4976962;28;20042;-70
2022/05/22 02:48:40;;;;;;;5.97;2.50;;;;;;;13.38;28.81;98090.94;5009248;28;20108;-68
2022/05/22 02:51:15;;;;;;;5.95;2.47;;;;;;;13.68;28.77;98085.84;5009308;28;20491;-68
2022/05/22 02:53:41;;;;;;;4.28;2.45;;;;;;;13.55;28.96;98108.06;4992789;28;20042;-68
2022/05/22 02:56:26;;;;;;;3.67;2.22;;;;;;;13.63;29.06;98120.34;5009683;28;20045;-68
2022/05/22 02:58:58;;;;;;;5.70;2.08;;;;;;;13.64;28.94;98114.00;5024887;28;20124;-68
2022/05/22 03:01:25;;;;;;;3.22;2.42;;;;;;;13.47;28.93;98110.97;5009230;28;20050;-69
2022/05/22 03:03:51;;;;;;;5.65;2.13;;;;;;;13.51;28.71;98102.34;5009302;28;20235;-68
2022/05/22 03:09:01;;;;;;;9.52;2.42;;;;;;;13.58;28.93;98111.13;5009068;28;20041;-67
2022/05/22 03:11:27;;;;;;;5.75;2.17;;;;;;;13.71;28.81;98122.75;4993278;28;20076;-67
2022/05/22 03:13:53;;;;;;;6.93;2.70;;;;;;;13.70;28.83;98121.13;4976445;28;20064;-67
2022/05/22 03:16:19;;;;;;;3.75;2.25;;;;;;;13.77;28.60;98113.91;5008905;28;20057;-67
2022/05/22 03:19:09;;;;;;;4.32;2.25;;;;;;;13.83;28.72;98118.38;4996062;28;20419;-67
2022/05/22 03:21:35;;;;;;;6.25;2.25;;;;;;;13.87;28.61;98109.72;5008801;28;20052;-66
2022/05/22 03:24:01;;;;;;;6.05;2.50;;;;;;;13.93;28.72;98108.06;5010578;28;20046;-67
2022/05/22 03:26:27;;;;;;;8.93;2.33;;;;;;;13.65;28.74;98081.75;4976677;28;20057;-67
2022/05/22 03:28:53;;;;;;;3.60;2.30;;;;;;;14.01;28.42;98119.28;5010015;28;20470;-67
2022/05/22 03:31:20;;;;;;;5.68;2.17;;;;;;;13.91;28.42;98104.78;5008729;28;20446;-67
2022/05/22 03:33:47;;;;;;;6.68;2.33;;;;;;;13.80;28.55;98084.13;4995939;28;20041;-67
2022/05/22 03:36:13;;;;;;;8.88;2.20;;;;;;;13.98;28.44;98108.19;5012785;28;20407;-67
2022/05/22 03:38:38;;;;;;;9.40;2.20;;;;;;;13.83;28.33;98073.84;4996425;28;20052;-67
2022/05/22 03:41:05;;;;;;;7.53;2.40;;;;;;;14.05;28.52;98112.47;5012840;28;20046;-67
2022/05/22 03:43:36;;;;;;;3.15;1.70;;;;;;;14.04;28.61;98118.03;5012678;28;20038;-67
2022/05/22 03:46:03;;;;;;;6.50;2.05;;;;;;;14.08;28.29;98101.38;5012713;28;20054;-67
2022/05/22 03:48:32;;;;;;;9.68;2.22;;;;;;;14.24;28.30;98113.38;4981069;28;20056;-67
2022/05/22 03:50:57;;;;;;;7.38;2.30;;;;;;;14.29;28.13;98117.03;5012382;28;20045;-67
2022/05/22 03:53:29;;;;;;;4.28;1.73;;;;;;;14.28;28.20;98085.22;4996287;28;20034;-68
2022/05/22 03:55:54;;;;;;;5.75;2.13;;;;;;;14.30;27.99;98112.53;4979778;28;20096;-68
2022/05/22 03:58:26;;;;;;;5.05;1.90;;;;;;;14.30;27.85;98107.19;5012413;28;20049;-68
2022/05/22 04:00:52;;;;;;;3.90;2.10;;;;;;;14.45;27.90;98113.00;5012224;28;20045;-68
2022/05/22 04:03:18;;;;;;;5.38;2.22;;;;;;;14.43;27.96;98101.72;4995712;28;20050;-69
2022/05/22 04:05:46;;;;;;;5.30;2.03;;;;;;;14.43;27.67;98094.53;5012168;28;20038;-68
2022/05/22 04:08:11;;;;;;;7.55;2.20;;;;;;;14.42;27.52;98089.41;5012037;28;20115;-68
2022/05/22 04:11:08;;;;;;;3.85;2.13;;;;;;;14.85;27.43;98103.56;5012797;28;20419;-69
2022/05/22 04:13:34;;;;;;;4.47;1.95;;;;;;;14.72;27.32;98101.00;4996205;28;20137;-68
2022/05/22 04:16:00;;;;;;;6.45;1.90;;;;;;;14.77;27.44;98111.84;5012279;28;20128;-68
2022/05/22 04:18:26;;;;;;;8.40;1.80;;;;;;;14.70;27.29;98076.34;5011779;28;20042;-69
2022/05/22 04:20:53;;;;;;;4.72;2.03;;;;;;;14.94;27.11;98112.91;5011978;28;20045;-70
2022/05/22 04:26:39;;;;;;;5.82;1.77;;;;;;;15.18;27.05;98103.97;5011888;28;20046;-69
2022/05/22 04:29:08;;;;;;;5.47;1.80;;;;;;;15.17;26.93;98103.19;4996309;28;20037;-69
2022/05/22 04:31:34;;;;;;;3.30;2.05;;;;;;;15.17;27.01;98108.53;4995683;28;20045;-70
2022/05/22 04:34:12;;;;;;;8.35;2.17;;;;;;;15.18;27.00;98110.16;4982449;28;20049;-69
2022/05/22 04:36:38;;;;;;;7.13;2.10;;;;;;;15.21;27.04;98109.72;5011955;28;20052;-69
2022/05/22 04:39:05;;;;;;;7.53;2.20;;;;;;;15.30;27.40;98093.38;4996198;28;20068;-70
2022/05/22 04:41:31;;;;;;;5.95;2.70;;;;;;;15.38;26.82;98096.56;4979602;28;20053;-68
2022/05/22 04:43:57;;;;;;;7.47;1.90;;;;;;;15.39;26.70;98111.56;5011795;28;20054;-68
2022/05/22 04:46:23;;;;;;;4.30;2.20;;;;;;;15.23;26.65;98072.03;5011473;28;20136;-68
2022/05/22 04:48:51;;;;;;;3.92;2.03;;;;;;;15.39;26.73;98097.38;4995487;28;20041;-68
2022/05/22 04:51:17;;;;;;;6.93;2.22;;;;;;;15.49;26.62;98101.16;4995060;28;20041;-68
2022/05/22 04:53:48;;;;;;;6.78;2.50;;;;;;;15.47;26.74;98094.41;4980135;28;20422;-67
2022/05/22 04:56:20;;;;;;;5.65;2.60;;;;;;;15.55;26.43;98097.56;4980702;28;20119;-68
2022/05/22 04:58:53;;;;;;;7.30;2.30;;;;;;;15.47;26.64;98097.88;5011109;28;20038;-66
2022/05/22 05:01:21;;;;;;;7.82;2.40;;;;;;;15.54;26.09;98101.31;4978879;28;20042;-67
2022/05/22 05:04:07;;;;;;;5.53;2.08;;;;;;;15.69;25.87;98107.06;5011151;28;20060;-68
2022/05/22 05:06:53;;;;;;;7.13;2.28;;;;;;;15.71;26.09;98096.94;5010991;28;20491;-69
2022/05/22 05:09:39;;;;;;;7.10;2.00;;;;;;;15.76;26.12;98098.94;5012248;28;20518;-67
2022/05/22 05:12:12;;;;;;;5.53;2.00;;;;;;;15.85;26.38;98098.34;4995432;28;20045;-70
2022/05/22 05:14:39;;;;;;;5.18;2.20;;;;;;;15.93;25.91;98102.59;5011540;28;20140;-69
2022/05/22 05:17:14;;;;;;;5.60;2.38;;;;;;;16.69;25.14;98104.22;4995508;28;20137;-66
2022/05/22 05:19:41;;;;;;;3.90;2.20;;;;;;;16.32;25.20;98067.13;5011044;28;20135;-67
2022/05/22 05:22:07;;;;;;;7.60;3.30;;;;;;;16.59;25.20;98098.63;5010842;28;20069;-68
2022/05/22 05:24:33;;;;;;;8.20;2.33;;;;;;;16.68;24.43;98104.47;4994522;28;20049;-68
2022/05/22 05:27:01;;;;;;;5.00;2.55;;;;;;;16.67;25.54;98094.75;4994485;28;20084;-68
2022/05/22 05:29:27;;;;;;;8.95;2.40;;;;;;;16.72;24.39;98093.03;4994240;28;20141;-68
2022/05/22 05:31:53;;;;;;;3.45;1.80;;;;;;;16.85;24.39;98089.28;5014963;28;20068;-69
2022/05/22 05:34:20;;;;;;;5.65;2.53;;;;;;;16.88;24.34;98097.66;5017163;28;20388;-71
2022/05/22 05:37:10;;;;;;;5.10;2.10;;;;;;;16.52;24.62;98094.44;4993591;28;20080;-70
2022/05/22 05:39:46;;;;;;;6.50;2.30;;;;;;;16.39;24.85;98081.25;5011297;28;20052;-70
2022/05/22 05:42:24;;;;;;;4.72;2.28;;;;;;;16.56;24.94;98088.38;5003550;28;20049;-70
2022/05/22 05:44:51;;;;;;;7.40;2.75;;;;;;;16.74;24.52;98087.44;5000635;28;20144;-71
2022/05/22 05:47:40;;;;;;;8.10;2.42;;;;;;;16.63;24.97;98061.44;5009893;28;20172;-71
2022/05/22 05:50:22;;;;;;;11.90;2.20;;;;;;;16.99;23.96;98097.91;4996282;28;20049;-70
2022/05/22 05:53:03;;;;;;;6.45;2.20;;;;;;;16.88;23.97;98097.66;4995639;28;20494;-70
2022/05/22 05:55:40;;;;;;;9.80;2.10;;;;;;;17.00;24.02;98094.16;4995367;28;20539;-69
2022/05/22 05:58:25;;;;;;;16.85;4.60;;;;;;;17.05;23.78;98086.22;5010201;28;20050;-71
2022/05/22 06:00:59;;;;;;;5.28;2.40;;;;;;;17.12;23.53;98081.53;4994930;28;20049;-69
2022/05/22 06:03:31;;;;;;;8.35;2.40;;;;;;;17.24;23.34;98093.03;4994057;28;20056;-69
2022/05/22 06:05:58;;;;;;;8.68;2.20;;;;;;;17.45;23.21;98103.97;4993700;28;20045;-68
2022/05/22 06:08:33;;;;;;;5.40;2.05;;;;;;;17.70;23.10;98104.47;4994393;28;20057;-69
2022/05/22 06:11:25;;;;;;;11.05;2.00;;;;;;;17.60;22.53;98098.09;4987418;28;20068;-70
2022/05/22 06:13:51;;;;;;;10.40;2.03;;;;;;;17.68;22.97;98101.19;4993443;28;20041;-70
2022/05/22 06:16:20;;;;;;;4.13;1.80;;;;;;;17.92;22.47;98101.91;4993328;28;20041;-72
2022/05/22 06:19:04;;;;;;;10.43;2.13;;;;;;;17.83;22.58;98103.34;5009822;28;20042;-73
2022/05/22 06:21:30;;;;;;;5.43;1.95;;;;;;;17.62;22.14;98058.41;4977500;28;20057;-72
2022/05/22 06:23:56;;;;;;;6.85;1.90;;;;;;;17.99;21.83;98103.38;5009782;28;20458;-71
2022/05/22 06:27:01;;;;;;;10.23;2.33;;;;;;;18.20;21.89;98107.25;4958809;28;20578;-71
2022/05/22 06:29:26;;;;;;;3.50;1.73;;;;;;;18.23;21.57;98104.88;4937583;28;20054;-71
2022/05/22 06:32:11;;;;;;;12.73;2.08;;;;;;;18.07;21.19;98024.25;4979026;28;20051;-72
2022/05/22 06:34:48;;;;;;;5.90;1.65;;;;;;;18.41;20.63;98107.34;5009633;28;20056;-73
2022/05/22 06:37:35;;;;;;;6.00;1.90;;;;;;;18.54;20.63;98106.22;4994973;28;20064;-73
2022/05/22 06:40:19;;;;;;;8.60;1.83;;;;;;;18.40;20.64;98099.53;5009376;28;20054;-72
2022/05/22 06:43:11;;;;;;;10.30;1.80;;;;;;;18.45;20.56;98100.41;4982140;28;20142;-71
2022/05/22 06:46:07;;;;;;;8.77;1.65;;;;;;;18.39;19.90;98116.72;4962669;28;20089;-71
2022/05/22 06:48:51;;;;;;;11.10;1.88;;;;;;;18.34;20.26;98103.97;5009916;28;20095;-70
2022/05/22 06:51:36;;;;;;;5.78;1.55;;;;;;;18.54;20.06;98092.78;4981910;28;20054;-70
2022/05/22 06:54:20;;;;;;;3.63;1.70;;;;;;;18.59;19.81;98098.19;4995407;28;20157;-69
2022/05/22 06:57:17;;;;;;;5.28;1.42;;;;;;;18.86;18.67;98107.22;4988416;28;20054;-72
2022/05/22 07:00:06;;;;;;;5.32;1.83;;;;;;;18.93;18.50;98105.16;5014133;28;20707;-71
2022/05/22 07:02:47;;;;;;;7.93;2.30;;;;;;;18.91;18.40;98109.16;5006512;28;20041;-70
2022/05/22 07:05:36;;;;;;;5.30;1.92;;;;;;;19.10;18.33;98108.63;4987929;28;20419;-71
2022/05/22 07:08:21;;;;;;;5.07;1.83;;;;;;;19.40;18.38;98106.38;5004549;28;20591;-71
2022/05/22 07:14:02;;;;;;;5.95;1.80;;;;;;;20.15;17.73;98108.25;4995158;28;20072;-71
2022/05/22 07:16:40;;;;;;;3.70;1.50;;;;;;;20.68;16.90;98097.34;4995404;28;20071;-71
2022/05/22 07:19:10;;;;;;;3.85;1.38;;;;;;;21.36;16.08;98094.50;5026163;28;20056;-71
2022/05/22 07:21:48;;;;;;;7.68;1.90;;;;;;;22.15;15.50;98093.13;4994876;28;20411;-71
2022/05/22 07:24:46;;;;;;;4.28;1.90;;;;;;;23.20;14.54;98103.03;4984004;28;20515;-71
2022/05/22 07:27:27;;;;;;;4.07;1.73;;;;;;;24.63;13.48;98098.94;4995142;28;20187;-71
2022/05/22 07:30:14;;;;;;;3.78;2.00;;;;;;;26.76;11.96;98094.03;4983093;28;20053;-71
2022/05/22 07:32:54;;;;;;;5.40;2.50;;;;;;;29.02;10.58;98106.25;4978553;28;20184;-72
2022/05/22 07:35:56;;;;;;;7.68;1.90;;;;;;;31.24;8.76;98073.56;4989058;28;20459;-72
2022/05/22 07:38:41;;;;;;;8.43;1.80;;;;;;;33.42;7.62;98087.31;5010190;28;20081;-72
2022/05/22 07:41:19;;;;;;;8.70;2.85;;;;;;;34.93;6.65;98103.75;4980190;28;20435;-72
2022/05/22 07:44:03;;;;;;;7.07;2.78;;;;;;;36.63;5.75;98098.34;5010028;28;20042;-72
2022/05/22 07:47:01;;;;;;;12.05;2.75;;;;;;;37.63;4.91;98089.53;4977920;28;20081;-72
2022/05/22 07:52:56;;;;;;;7.93;2.05;;;;;;;39.03;4.08;98082.31;5014810;28;20057;-73
2022/05/22 07:55:39;;;;;;;11.27;2.00;;;;;;;39.54;3.89;98083.19;5000389;28;20065;-73
2022/05/22 07:58:07;;;;;;;;;;;;;;;40.29;3.45;98076.19;4999198;28;20046;-74
2022/05/22 08:01:02;;;;;;;10.70;2.13;;;;;;;40.88;3.01;98078.38;5001187;28;19925;-72
2022/05/22 08:03:48;;;;;;;13.57;2.15;;;;;;;40.99;2.94;98076.41;4970991;28;20077;-72
2022/05/22 08:06:34;;;;;;;9.30;2.05;;;;;;;40.72;2.86;98075.19;4998036;28;20521;-73
2022/05/22 08:09:08;;;;;;;10.85;1.90;;;;;;;41.04;2.72;98079.59;4994855;28;20038;-73
2022/05/22 08:11:34;;;;;;;6.78;1.98;;;;;;;41.16;2.69;98084.03;4977424;28;20049;-72
2022/05/22 08:14:06;;;;;;;7.47;2.30;;;;;;;41.42;2.48;98076.09;4993487;28;20072;-73
2022/05/22 08:16:36;;;;;;;5.63;1.52;;;;;;;42.14;2.06;98069.25;4993430;28;20065;-72
2022/05/22 08:19:11;;;;;;;9.93;1.90;;;;;;;42.50;2.06;98063.16;4995011;28;20050;-73
2022/05/22 08:21:53;;;;;;;9.52;2.00;;;;;;;42.56;1.93;98064.34;4998937;28;20462;-72
2022/05/22 08:24:21;;;;;;;8.52;1.60;;;;;;;42.81;1.62;98061.44;4996307;28;20057;-72
2022/05/22 08:26:52;;;;;;;5.80;2.03;;;;;;;42.98;1.38;98055.72;4997259;28;20493;-73
2022/05/22 08:29:26;;;;;;;8.05;1.75;;;;;;;42.91;1.07;98057.75;4982397;28;20132;-73
2022/05/22 08:31:54;;;;;;;5.93;1.50;;;;;;;43.37;1.30;98074.22;5012516;28;20133;-73
2022/05/22 08:34:22;;;;;;;9.95;1.30;;;;;;;43.58;0.93;98074.84;5012434;28;20038;-72
2022/05/22 08:36:50;;;;;;;5.78;1.40;;;;;;;44.04;0.84;98061.22;4996050;28;20049;-73
2022/05/22 08:39:15;;;;;;;3.97;1.40;;;;;;;44.11;0.50;98054.75;4996353;28;20172;-73
2022/05/22 08:41:48;;;;;;;4.15;1.70;;;;;;;44.09;0.71;98057.16;4979952;28;20042;-72
2022/05/22 08:44:16;;;;;;;5.32;1.48;;;;;;;44.10;0.74;98056.75;4995884;28;20407;-73
2022/05/22 08:46:51;;;;;;;4.80;1.52;;;;;;;44.77;0.67;98058.75;4995857;28;20053;-73
2022/05/22 08:49:26;;;;;;;8.68;1.80;;;;;;;45.24;0.52;98040.81;5012269;28;20064;-73
2022/05/22 08:52:17;;;;;;;4.32;1.10;;;;;;;45.98;0.39;98047.94;4995766;28;20499;-73
2022/05/22 08:54:54;;;;;;;5.88;1.42;;;;;;;46.01;0.48;98052.72;4996763;28;20058;-73
2022/05/22 09:00:09;;;;;;;4.93;1.60;;;;;;;45.52;0.48;98033.97;5014197;28;20450;-72
2022/05/22 09:02:45;;;;;;;9.02;1.88;;;;;;;45.52;0.34;98039.56;5011530;28;20057;-73
2022/05/22 09:05:17;;;;;;;8.52;1.70;;;;;;;45.73;0.18;98047.63;4995733;28;20057;-73
2022/05/22 09:07:46;;;;;;;2.80;1.42;;;;;;;46.26;0.09;98041.81;5011578;28;20045;-73
2022/05/22 09:10:44;;;;;;;2.77;1.40;;;;;;;46.76;0.00;98035.94;5011383;28;20392;-73
2022/05/22 09:13:33;;;;;;;3.38;1.77;;;;;;;46.87;0.00;98042.91;5011396;28;20580;-72
2022/05/22 09:16:11;;;;;;;4.45;1.75;;;;;;;47.06;0.00;98033.63;5011247;28;20054;-73
2022/05/22 09:18:38;;;;;;;6.30;1.40;;;;;;;47.09;0.00;98038.38;4994897;28;20129;-73
2022/05/22 09:21:10;;;;;;;6.18;1.63;;;;;;;47.11;0.00;98041.53;5012460;28;20053;-73
2022/05/22 09:23:49;;;;;;;8.68;1.80;;;;;;;47.49;0.00;98042.59;4994860;28;20054;-73
2022/05/22 09:26:38;;;;;;;3.17;1.52;;;;;;;47.53;0.00;98046.13;4994725;28;20046;-73
2022/05/22 09:29:04;;;;;;;;;;;;;;;47.01;0.00;98034.16;4995296;28;20558;-73
2022/05/22 09:31:43;;;;;;;7.63;1.42;;;;;;;47.00;0.00;98031.78;4994016;28;20016;-73
2022/05/22 09:34:34;;;;;;;3.88;1.45;;;;;;;46.89;0.00;98032.03;4994987;28;20577;-73
2022/05/22 09:37:09;;;;;;;2.58;1.55;;;;;;;46.51;0.00;98021.63;4994488;28;20422;-73
2022/05/22 09:39:38;;;;;;;8.02;1.65;;;;;;;46.78;0.00;98031.44;4994698;28;20072;-73
2022/05/22 09:42:10;;;;;;;11.45;1.55;;;;;;;47.73;0.00;98029.16;4994605;28;20526;-73
2022/05/22 09:44:52;;;;;;;2.42;1.73;;;;;;;47.34;0.00;98026.53;5010773;28;20049;-73
2022/05/22 09:47:37;;;;;;;7.72;1.92;;;;;;;47.38;0.00;98018.78;5011315;28;20523;-75
2022/05/22 09:50:34;;;;;;;6.88;1.92;;;;;;;47.24;0.00;98027.59;5011429;28;20053;-73
2022/05/22 09:53:26;;;;;;;4.22;1.70;;;;;;;47.14;0.00;98018.16;4961366;28;20058;-73
2022/05/22 09:55:53;;;;;;;5.18;2.00;;;;;;;47.59;0.00;98009.84;4995163;28;20602;-72
2022/05/22 09:58:43;;;;;;;8.15;1.80;;;;;;;47.46;0.00;98017.38;4994285;28;20053;-73
2022/05/22 10:01:30;;;;;;;4.35;1.70;;;;;;;47.72;0.00;98007.09;4994197;28;20060;-73
2022/05/22 10:04:30;;;;;;;5.25;1.50;;;;;;;47.77;0.00;98014.97;4977714;28;20119;-73
2022/05/22 10:07:01;;;;;;;5.20;1.80;;;;;;;47.67;0.00;98008.41;4993740;28;20056;-73
2022/05/22 10:09:52;;;;;;;2.88;1.90;;;;;;;48.08;0.00;98016.94;4994252;28;20144;-73
2022/05/22 10:12:27;;;;;;;8.55;2.08;;;;;;;47.99;0.00;97985.81;4993988;28;20168;-73
2022/05/22 10:15:13;;;;;;;2.75;1.70;;;;;;;48.05;0.00;98012.19;5010428;28;20042;-73
2022/05/22 10:18:02;;;;;;;3.95;2.00;;;;;;;48.10;0.00;98000.38;5010166;28;20056;-72
2022/05/22 10:21:00;;;;;;;4.72;1.75;;;;;;;47.94;0.00;97994.00;4993759;28;20080;-72
2022/05/22 10:23:53;;;;;;;6.90;1.95;;;;;;;47.69;0.00;97999.53;5010375;28;20494;-73
2022/05/22 10:26:37;;;;;;;5.20;2.10;;;;;;;47.42;0.00;97986.53;4993998;28;20046;-73
2022/05/22 10:29:17;;;;;;;12.85;2.42;;;;;;;46.70;0.00;97987.91;4993662;28;20052;-72
2022/05/22 10:31:54;;;;;;;16.23;2.05;;;;;;;46.43;0.00;97995.69;4993807;28;20044;-73
2022/05/22 10:34:31;;;;;;;5.32;2.00;;;;;;;46.37;0.00;97993.81;5010456;28;20050;-73
2022/05/22 10:37:00;;;;;;;7.53;1.88;;;;;;;46.52;0.00;97987.50;4993672;28;20056;-73
2022/05/22 10:39:26;;;;;;;10.32;2.03;;;;;;;46.84;0.00;97983.94;4993555;28;20115;-73
2022/05/22 10:44:52;;;;;;;3.65;1.90;;;;;;;46.40;0.00;97990.16;4995975;28;20046;-73
2022/05/22 10:47:28;;;;;;;7.25;1.83;;;;;;;46.09;0.00;97986.78;4993481;28;20057;-73
2022/05/22 10:49:54;;;;;;;8.95;2.30;;;;;;;45.28;0.00;97993.09;5010068;28;20049;-73
2022/05/22 10:52:34;;;;;;;13.25;2.15;;;;;;;45.13;0.00;97964.53;4993720;28;20042;-73
2022/05/22 10:55:01;;;;;;;19.30;2.10;;;;;;;44.40;0.03;97975.63;5010095;28;20145;-73
2022/05/22 10:57:31;;;;;;;2.80;1.85;;;;;;;43.89;0.00;97981.44;4977940;28;20420;-73
2022/05/22 11:00:10;;;;;;;4.60;1.77;;;;;;;43.74;0.17;97996.78;5009827;28;20425;-73
2022/05/22 11:02:36;;;;;;;5.57;1.70;;;;;;;43.49;0.17;97989.88;4993266;28;20041;-73
2022/05/22 11:05:02;;;;;;;10.25;1.83;;;;;;;42.23;0.40;97997.03;4993691;28;20172;-72
2022/05/22 11:07:44;;;;;;;6.30;2.00;;;;;;;40.57;0.98;97990.78;4993587;28;20065;-72
2022/05/22 11:10:15;;;;;;;7.15;1.88;;;;;;;38.78;1.71;97983.28;4993418;28;20050;-72
2022/05/22 11:12:41;;;;;;;3.83;1.80;;;;;;;37.22;2.10;97972.16;5010454;28;20050;-72
2022/05/22 11:15:13;;;;;;;8.23;2.00;;;;;;;36.17;2.47;97984.00;4993200;28;20084;-72
2022/05/22 11:17:42;;;;;;;8.18;3.05;;;;;;;35.39;2.90;97972.44;5009432;28;20103;-72
2022/05/22 11:20:08;;;;;;;8.27;2.00;;;;;;;34.64;3.18;97957.94;4976706;28;20523;-72
2022/05/22 11:22:58;;;;;;;4.85;2.20;;;;;;;33.72;3.62;97968.28;4993173;28;20132;-72
2022/05/22 11:25:42;;;;;;;8.00;2.17;;;;;;;32.37;4.09;97978.00;5008874;28;20050;-72
2022/05/22 11:28:37;;;;;;;7.28;2.17;;;;;;;31.39;4.69;97957.78;4993336;28;20077;-72
2022/05/22 11:31:03;;;;;;;10.30;1.80;;;;;;;30.44;4.98;97988.66;4984043;28;20778;-72
2022/05/22 11:33:38;;;;;;;8.65;2.05;;;;;;;29.88;5.38;97977.91;4993208;28;20443;-72
2022/05/22 11:36:37;;;;;;;5.40;2.13;;;;;;;29.29;5.45;97969.31;5009166;28;20459;-72
2022/05/22 11:39:25;;;;;;;6.38;2.72;;;;;;;28.83;6.21;97985.41;5007356;28;20058;-72
2022/05/22 11:42:09;;;;;;;9.38;2.35;;;;;;;28.59;6.12;97979.50;4993188;28;20392;-72
2022/05/22 11:45:13;;;;;;;8.85;2.00;;;;;;;28.16;6.23;97981.16;4992988;28;20048;-71
2022/05/22 11:47:54;;;;;;;6.20;2.35;;;;;;;27.66;6.58;97979.63;4993289;28;20045;-71
2022/05/22 11:50:29;;;;;;;7.25;2.20;;;;;;;27.23;6.69;97987.34;4992981;28;20050;-71
2022/05/22 11:53:36;;;;;;;9.38;2.50;;;;;;;26.79;6.97;97984.47;4993692;28;20042;-72
2022/05/22 11:56:19;;;;;;;4.15;2.17;;;;;;;26.24;7.70;97985.47;4971016;28;20076;-71
2022/05/22 11:58:50;;;;;;;5.50;1.85;;;;;;;25.52;7.71;97962.41;4980941;28;20061;-71
2022/05/22 12:01:27;;;;;;;3.97;1.75;;;;;;;25.41;8.23;97982.66;4996425;28;20046;-71
2022/05/22 12:04:05;;;;;;;7.18;2.28;;;;;;;25.30;8.36;97986.59;4996310;28;20128;-71
2022/05/22 12:06:54;;;;;;;6.70;1.95;;;;;;;24.86;8.16;97977.91;5013822;28;20057;-71
2022/05/22 12:09:41;;;;;;;6.93;2.03;;;;;;;24.51;8.72;97981.78;5016367;28;20163;-71
2022/05/22 12:12:28;;;;;;;7.07;2.08;;;;;;;24.21;9.08;97986.72;4996262;28;20481;-71
2022/05/22 12:15:01;;;;;;;10.32;2.17;;;;;;;23.94;9.39;97989.09;4980426;28;20140;-71
2022/05/22 12:17:43;;;;;;;8.05;2.50;;;;;;;23.81;9.16;97989.72;5012630;28;20046;-71
2022/05/22 12:20:14;;;;;;;4.47;2.17;;;;;;;23.64;9.39;97990.13;4996181;28;20084;-72
2022/05/22 12:23:08;;;;;;;5.95;2.50;;;;;;;23.39;9.63;97984.06;4996023;28;20100;-71
2022/05/22 12:25:50;;;;;;;6.68;2.08;;;;;;;23.23;9.67;97980.59;5012614;28;20046;-71
2022/05/22 12:28:25;;;;;;;3.05;2.10;;;;;;;23.01;10.11;97980.16;5028692;28;20046;-71
2022/05/22 12:30:55;;;;;;;5.70;2.47;;;;;;;22.82;10.39;97962.88;4996253;28;20071;-71